Xenia, Kansas
Current Conditions -  °F | °C
As of 7:52 PM on Saturday 20 Dec 2014 (Local Time) from KCNU Reporting Station
Clear Clear  
Wind Chill: 29°   Ceiling: Unl
Heat Index: 36°   Visibility: 9mi
Dew Point: 33°   Wind: 9mph
Humidity: 89%   Direction: 180°S
Pressure: 30.16"   Gusts: NA
Location:  37.9449°N, 95.0016°W
Report Text: KCNU 210152Z AUTO 18008KT 9SM CLR 02/01 A3016 RMK AO2 SLP219 T00220006
Loading
Personal Weather Stations






























Interactive Weather Map New forecast layout! Learn more

10-Day Weather Forecast

Advertisements
Track Severe Weather on mobile